KFUL/FUL METAR and TAF weather

Enter ICAO airport designator
Station Type Date Time Source
KFUL METAR 2020/07/06 18:53 UTC NOAA

KFUL 061853Z 23010KT 10SM CLR 30/14 A2987 RMK AO2 SLP114 T03000144


Station Type Date Time Source
KFUL Decoded METAR 2020/07/06 18:53 UTC NOAA

FULLERTON MUNICIPAL AIRPORT , CA, United States (KFUL) 33-52N 117-59W 35M
Jul 06, 2020 - 02:53 PM EDT / 2020.07.06 1853 UTC
Wind: from the SW (230 degrees) at 12 MPH (10 KT):0
Visibility: 10 mile(s):0
Sky conditions: clear
Temperature: 86.0 F (30.0 C)
Dew Point: 57.9 F (14.4 C)
Relative Humidity: 38%
Pressure (altimeter): 29.87 in. Hg (1011 hPa)
ob: KFUL 061853Z 23010KT 10SM CLR 30/14 A2987 RMK AO2 SLP114 T03000144
cycle: 19

Station Type Date Time Source
KFUL TAF UTC NOAA

Error!

Example: see airport list